Logan Peak - 24 Hour Table
Date & TimeSolar
Radiation
(W/m²)
Wind
Speed
(mph)
Wind
Direction
(degrees)
Air
Temperature
(°F)
Relative
Humidity
(%)
Barometeric
Pressure
(inHg)
2018/08/13 23:00 0 0.0 0 61.3 30 30.01
2018/08/13 22:00 0 0.0 0 60.5 31 30.02
2018/08/13 21:00 0 0.0 0 60.6 31 30.02
2018/08/13 20:00 5 0.0 0 60.5 34 30.01
2018/08/13 19:00 44 0.0 0 62.0 33 30.01
2018/08/13 18:00 257 0.0 0 63.9 30 30.01
2018/08/13 17:00 485 0.0 0 67.3 32 30.02
2018/08/13 16:00 650 0.0 0 68.3 26 30.02
2018/08/13 15:00 789 0.0 0 68.3 26 30.02
2018/08/13 14:00 855 0.0 0 66.9 29 30.03
2018/08/13 13:00 849 0.0 0 66.2 28 30.04
2018/08/13 12:00 791 0.0 0 66.4 30 30.04
2018/08/13 11:00 543 0.0 0 63.5 34 30.05
2018/08/13 10:00 397 0.0 0 60.1 35 30.05
2018/08/13 09:00 215 0.0 0 59.8 33 30.06
2018/08/13 08:00 120 0.0 0 60.4 33 30.05
2018/08/13 07:00 44 0.0 0 60.2 30 30.04
2018/08/13 06:00 5 0.0 0 60.6 29 30.04
2018/08/13 05:00 0 0.0 0 61.5 28 30.03
2018/08/13 04:00 0 0.0 0 61.3 27 30.03
2018/08/13 03:00 0 0.0 0 61.0 28 30.03
2018/08/13 02:00 0 0.0 0 61.7 28 30.03
2018/08/13 01:00 0 0.0 0 62.1 27 30.04
2018/08/13 00:00 0 0.0 0 62.2 28 30.04